BAW2NA EGLL-EGPH
Flight info
| Callsign | BAW2NA |
|---|---|
| Flight time | 0h 57m |
| Altitude | 32000 |
| Route | ULTIB T420 TNT UN57 POL UN601 RIBEL DCT INPIP |
| Aircraft | A319/M-SDE3FGHIRWY/LB1 |
Departure
| Time | 2026-04-21 10:53 |
|---|---|
| Airport | London Heathrow Airport (EGLL) |
Arrival
| Time | 2026-04-21 11:51 |
|---|---|
| Airport | Edinburgh Airport (EGPH) |
| Time | Latitude | Longitude | Altitude | Speed | Heading |
|---|---|---|---|---|---|
| 2026-04-21 10:24 | 51.47271 | -0.48588 | 86 ft | 0 kts | 269° |
| 2026-04-21 10:46 | 51.47271 | -0.48558 | 87 ft | 4 kts | 269° |
| 2026-04-21 10:46 | 51.47271 | -0.48522 | 89 ft | 3 kts | 269° |
| 2026-04-21 10:46 | 51.47276 | -0.48485 | 89 ft | 4 kts | 223° |
| 2026-04-21 10:47 | 51.47296 | -0.48473 | 88 ft | 4 kts | 179° |
| 2026-04-21 10:47 | 51.47310 | -0.48473 | 88 ft | 0 kts | 179° |
| 2026-04-21 10:49 | 51.47300 | -0.48473 | 88 ft | 4 kts | 179° |
| 2026-04-21 10:49 | 51.47258 | -0.48473 | 89 ft | 8 kts | 179° |
| 2026-04-21 10:49 | 51.47191 | -0.48473 | 86 ft | 11 kts | 180° |
| 2026-04-21 10:49 | 51.47104 | -0.48473 | 86 ft | 14 kts | 180° |
| 2026-04-21 10:50 | 51.47032 | -0.48472 | 86 ft | 16 kts | 179° |
| 2026-04-21 10:50 | 51.46861 | -0.48469 | 86 ft | 20 kts | 179° |
| 2026-04-21 10:50 | 51.46711 | -0.48468 | 86 ft | 23 kts | 180° |
| 2026-04-21 10:50 | 51.46588 | -0.48467 | 87 ft | 0 kts | 179° |
| 2026-04-21 10:51 | 51.46587 | -0.48467 | 87 ft | 0 kts | 179° |
| 2026-04-21 10:51 | 51.46559 | -0.48467 | 87 ft | 7 kts | 179° |
| 2026-04-21 10:52 | 51.46496 | -0.48457 | 88 ft | 11 kts | 157° |
| 2026-04-21 10:52 | 51.46480 | -0.48341 | 87 ft | 13 kts | 94° |
| 2026-04-21 10:52 | 51.46480 | -0.48208 | 89 ft | 11 kts | 90° |
| 2026-04-21 10:52 | 51.46480 | -0.48184 | 88 ft | 9 kts | 90° |
| 2026-04-21 10:53 | 51.46482 | -0.47604 | 86 ft | 88 kts | 90° |
| 2026-04-21 10:53 | 51.46487 | -0.46306 | 90 ft | 144 kts | 90° |
| 2026-04-21 10:53 | 51.46481 | -0.44596 | 587 ft | 154 kts | 88° |
| 2026-04-21 10:53 | 51.46500 | -0.42874 | 1401 ft | 155 kts | 85° |
| 2026-04-21 10:54 | 51.46735 | -0.41095 | 1926 ft | 176 kts | 62° |
| 2026-04-21 10:54 | 51.47539 | -0.39422 | 2497 ft | 202 kts | 52° |
| 2026-04-21 10:54 | 51.48485 | -0.37569 | 3139 ft | 227 kts | 52° |
| 2026-04-21 10:54 | 51.49514 | -0.35538 | 4068 ft | 239 kts | 53° |
| 2026-04-21 10:55 | 51.50572 | -0.33439 | 5214 ft | 245 kts | 54° |
| 2026-04-21 10:55 | 51.51660 | -0.31269 | 5757 ft | 251 kts | 54° |
| 2026-04-21 10:55 | 51.52538 | -0.28886 | 5952 ft | 248 kts | 71° |
| 2026-04-21 10:55 | 51.53108 | -0.26278 | 6005 ft | 247 kts | 72° |
| 2026-04-21 10:56 | 51.54002 | -0.23916 | 6008 ft | 253 kts | 47° |
| 2026-04-21 10:56 | 51.55521 | -0.22465 | 6011 ft | 261 kts | 20° |
| 2026-04-21 10:56 | 51.57352 | -0.22417 | 6006 ft | 272 kts | 350° |
| 2026-04-21 10:56 | 51.59179 | -0.23329 | 6214 ft | 280 kts | 349° |
| 2026-04-21 10:57 | 51.61083 | -0.24028 | 6416 ft | 278 kts | 350° |
| 2026-04-21 10:57 | 51.62891 | -0.25127 | 6435 ft | 280 kts | 337° |
| 2026-04-21 10:57 | 51.64612 | -0.26594 | 6437 ft | 281 kts | 335° |
| 2026-04-21 10:57 | 51.66311 | -0.28150 | 6439 ft | 281 kts | 333° |
| 2026-04-21 10:58 | 51.67462 | -0.29241 | 6599 ft | 288 kts | 333° |
| 2026-04-21 10:58 | 51.69179 | -0.30897 | 7602 ft | 287 kts | 333° |
| 2026-04-21 10:58 | 51.70890 | -0.32560 | 8676 ft | 289 kts | 332° |
| 2026-04-21 10:58 | 51.72619 | -0.34239 | 9711 ft | 292 kts | 332° |
| 2026-04-21 10:59 | 51.74377 | -0.35944 | 10686 ft | 298 kts | 332° |
| 2026-04-21 10:59 | 51.76225 | -0.37730 | 11119 ft | 321 kts | 332° |
| 2026-04-21 10:59 | 51.78182 | -0.39623 | 11691 ft | 333 kts | 332° |
| 2026-04-21 10:59 | 51.80186 | -0.41568 | 12549 ft | 338 kts | 331° |
| 2026-04-21 11:00 | 51.82211 | -0.43536 | 13425 ft | 342 kts | 332° |
| 2026-04-21 11:00 | 51.84272 | -0.45533 | 14099 ft | 347 kts | 331° |
| 2026-04-21 11:00 | 51.86343 | -0.47540 | 14277 ft | 348 kts | 331° |
| 2026-04-21 11:00 | 51.88420 | -0.49556 | 14319 ft | 348 kts | 332° |
| 2026-04-21 11:01 | 51.90491 | -0.51572 | 14332 ft | 348 kts | 332° |
| 2026-04-21 11:01 | 51.92569 | -0.53595 | 14335 ft | 349 kts | 332° |
| 2026-04-21 11:01 | 51.94645 | -0.55618 | 14334 ft | 348 kts | 332° |
| 2026-04-21 11:02 | 51.98787 | -0.59669 | 14335 ft | 347 kts | 331° |
| 2026-04-21 11:02 | 52.00854 | -0.61694 | 14324 ft | 348 kts | 331° |
| 2026-04-21 11:02 | 52.02925 | -0.63723 | 14340 ft | 348 kts | 332° |
| 2026-04-21 11:02 | 52.05000 | -0.65760 | 14353 ft | 349 kts | 332° |
| 2026-04-21 11:03 | 52.07073 | -0.67797 | 14356 ft | 349 kts | 332° |
| 2026-04-21 11:03 | 52.09150 | -0.69841 | 14356 ft | 349 kts | 331° |
| 2026-04-21 11:03 | 52.11224 | -0.71879 | 14354 ft | 348 kts | 332° |
| 2026-04-21 11:03 | 52.13299 | -0.73920 | 14356 ft | 349 kts | 331° |
| 2026-04-21 11:04 | 52.15371 | -0.75963 | 14352 ft | 349 kts | 332° |
| 2026-04-21 11:04 | 52.17447 | -0.78014 | 14354 ft | 349 kts | 332° |
| 2026-04-21 11:04 | 52.19522 | -0.80065 | 14354 ft | 349 kts | 332° |
| 2026-04-21 11:04 | 52.21598 | -0.82117 | 14373 ft | 350 kts | 331° |
| 2026-04-21 11:05 | 52.23695 | -0.84192 | 14998 ft | 353 kts | 331° |
| 2026-04-21 11:05 | 52.25806 | -0.86282 | 15755 ft | 356 kts | 331° |
| 2026-04-21 11:05 | 52.27933 | -0.88390 | 16498 ft | 360 kts | 332° |
| 2026-04-21 11:05 | 52.30093 | -0.90534 | 17217 ft | 365 kts | 331° |
| 2026-04-21 11:06 | 52.32276 | -0.92707 | 17968 ft | 370 kts | 330° |
| 2026-04-21 11:06 | 52.34482 | -0.94910 | 18739 ft | 373 kts | 330° |
| 2026-04-21 11:06 | 52.36705 | -0.97130 | 19404 ft | 377 kts | 331° |
| 2026-04-21 11:06 | 52.38962 | -0.99382 | 20074 ft | 381 kts | 330° |
| 2026-04-21 11:07 | 52.41218 | -1.01641 | 20923 ft | 378 kts | 330° |
| 2026-04-21 11:07 | 52.43450 | -1.03882 | 21778 ft | 376 kts | 329° |
| 2026-04-21 11:07 | 52.45673 | -1.06115 | 22630 ft | 374 kts | 329° |
| 2026-04-21 11:07 | 52.47891 | -1.08342 | 23371 ft | 375 kts | 328° |
| 2026-04-21 11:08 | 52.50088 | -1.10545 | 24085 ft | 374 kts | 328° |
| 2026-04-21 11:08 | 52.52340 | -1.12808 | 24678 ft | 376 kts | 328° |
| 2026-04-21 11:08 | 52.54577 | -1.15064 | 25225 ft | 378 kts | 328° |
| 2026-04-21 11:08 | 52.56825 | -1.17334 | 25722 ft | 381 kts | 328° |
| 2026-04-21 11:09 | 52.59091 | -1.19622 | 26254 ft | 384 kts | 327° |
| 2026-04-21 11:09 | 52.61372 | -1.21926 | 26755 ft | 386 kts | 327° |
| 2026-04-21 11:09 | 52.63667 | -1.24247 | 27296 ft | 388 kts | 327° |
| 2026-04-21 11:09 | 52.65971 | -1.26577 | 27851 ft | 389 kts | 327° |
| 2026-04-21 11:10 | 52.68278 | -1.28912 | 28418 ft | 390 kts | 326° |
| 2026-04-21 11:10 | 52.70592 | -1.31257 | 28991 ft | 391 kts | 326° |
| 2026-04-21 11:10 | 52.72907 | -1.33612 | 29568 ft | 391 kts | 326° |
| 2026-04-21 11:10 | 52.75224 | -1.35974 | 30212 ft | 392 kts | 326° |
| 2026-04-21 11:11 | 52.77557 | -1.38352 | 30639 ft | 396 kts | 326° |
| 2026-04-21 11:11 | 52.79880 | -1.40726 | 30947 ft | 401 kts | 326° |
| 2026-04-21 11:11 | 52.82262 | -1.43163 | 31289 ft | 404 kts | 326° |
| 2026-04-21 11:11 | 52.84691 | -1.45650 | 31631 ft | 407 kts | 326° |
| 2026-04-21 11:12 | 52.87079 | -1.48095 | 31974 ft | 410 kts | 326° |
| 2026-04-21 11:12 | 52.89505 | -1.50587 | 32298 ft | 412 kts | 326° |
| 2026-04-21 11:12 | 52.94286 | -1.55500 | 32387 ft | 390 kts | 326° |
| 2026-04-21 11:13 | 52.96554 | -1.57835 | 32390 ft | 378 kts | 325° |
| 2026-04-21 11:13 | 52.98768 | -1.60119 | 32392 ft | 373 kts | 325° |
| 2026-04-21 11:13 | 53.03163 | -1.64668 | 32394 ft | 373 kts | 326° |
| 2026-04-21 11:14 | 53.07833 | -1.68502 | 32402 ft | 377 kts | 336° |
| 2026-04-21 11:14 | 53.12755 | -1.71542 | 32405 ft | 377 kts | 336° |
| 2026-04-21 11:15 | 53.17671 | -1.74595 | 32407 ft | 377 kts | 336° |
| 2026-04-21 11:15 | 53.22586 | -1.77648 | 32406 ft | 377 kts | 336° |
| 2026-04-21 11:16 | 53.27497 | -1.80719 | 32411 ft | 377 kts | 337° |
| 2026-04-21 11:16 | 53.32421 | -1.83798 | 32403 ft | 378 kts | 336° |
| 2026-04-21 11:17 | 53.37352 | -1.86880 | 32397 ft | 378 kts | 336° |
| 2026-04-21 11:17 | 53.42287 | -1.89973 | 32392 ft | 379 kts | 337° |
| 2026-04-21 11:18 | 53.47219 | -1.93086 | 32407 ft | 379 kts | 337° |
| 2026-04-21 11:18 | 53.52151 | -1.96205 | 32405 ft | 379 kts | 336° |
| 2026-04-21 11:19 | 53.57086 | -1.99327 | 32413 ft | 379 kts | 336° |
| 2026-04-21 11:19 | 53.62021 | -2.02449 | 32412 ft | 379 kts | 337° |
| 2026-04-21 11:20 | 53.66954 | -2.05587 | 32415 ft | 379 kts | 336° |
| 2026-04-21 11:20 | 53.71885 | -2.08728 | 32399 ft | 379 kts | 336° |
| 2026-04-21 11:21 | 53.76813 | -2.11912 | 32409 ft | 379 kts | 335° |
| 2026-04-21 11:21 | 53.81678 | -2.15375 | 32407 ft | 380 kts | 333° |
| 2026-04-21 11:22 | 53.86485 | -2.19103 | 32418 ft | 380 kts | 332° |
| 2026-04-21 11:22 | 53.91288 | -2.22855 | 32419 ft | 380 kts | 333° |
| 2026-04-21 11:23 | 53.96101 | -2.26575 | 32424 ft | 381 kts | 333° |
| 2026-04-21 11:23 | 54.00929 | -2.30292 | 32430 ft | 381 kts | 332° |
| 2026-04-21 11:24 | 54.05766 | -2.34019 | 32426 ft | 382 kts | 333° |
| 2026-04-21 11:24 | 54.10610 | -2.37768 | 32429 ft | 382 kts | 332° |
| 2026-04-21 11:25 | 54.15456 | -2.41528 | 32437 ft | 383 kts | 332° |
| 2026-04-21 11:25 | 54.20317 | -2.45306 | 32456 ft | 388 kts | 334° |
| 2026-04-21 11:26 | 54.22809 | -2.47236 | 32462 ft | 400 kts | 334° |
| 2026-04-21 11:26 | 54.25369 | -2.49288 | 32464 ft | 412 kts | 334° |
| 2026-04-21 11:26 | 54.30589 | -2.52887 | 32458 ft | 397 kts | 338° |
| 2026-04-21 11:27 | 54.35768 | -2.56114 | 32465 ft | 396 kts | 339° |
| 2026-04-21 11:27 | 54.40939 | -2.59337 | 32465 ft | 394 kts | 339° |
| 2026-04-21 11:28 | 54.46090 | -2.62617 | 32472 ft | 395 kts | 338° |
| 2026-04-21 11:28 | 54.51267 | -2.65954 | 32467 ft | 399 kts | 339° |
| 2026-04-21 11:29 | 54.53898 | -2.67655 | 32482 ft | 410 kts | 339° |
| 2026-04-21 11:29 | 54.56606 | -2.69409 | 32480 ft | 422 kts | 337° |
| 2026-04-21 11:29 | 54.62179 | -2.73014 | 32165 ft | 423 kts | 339° |
| 2026-04-21 11:30 | 54.64929 | -2.74787 | 31201 ft | 422 kts | 338° |
| 2026-04-21 11:30 | 54.67671 | -2.76560 | 30266 ft | 419 kts | 339° |
| 2026-04-21 11:30 | 54.70386 | -2.78319 | 29221 ft | 416 kts | 339° |
| 2026-04-21 11:30 | 54.73054 | -2.80052 | 28766 ft | 401 kts | 341° |
| 2026-04-21 11:31 | 54.75623 | -2.81730 | 28373 ft | 388 kts | 341° |
| 2026-04-21 11:31 | 54.78108 | -2.83357 | 27987 ft | 376 kts | 341° |
| 2026-04-21 11:31 | 54.80518 | -2.84938 | 27606 ft | 366 kts | 341° |
| 2026-04-21 11:31 | 54.82893 | -2.86499 | 27241 ft | 364 kts | 342° |
| 2026-04-21 11:32 | 54.85256 | -2.88049 | 26866 ft | 362 kts | 341° |
| 2026-04-21 11:32 | 54.87610 | -2.89592 | 26498 ft | 361 kts | 341° |
| 2026-04-21 11:32 | 54.89993 | -2.91205 | 25980 ft | 376 kts | 341° |
| 2026-04-21 11:32 | 54.92419 | -2.92933 | 25452 ft | 379 kts | 340° |
| 2026-04-21 11:33 | 54.94859 | -2.94724 | 24923 ft | 381 kts | 340° |
| 2026-04-21 11:33 | 54.97281 | -2.96523 | 24486 ft | 378 kts | 340° |
| 2026-04-21 11:33 | 54.99705 | -2.98320 | 24035 ft | 377 kts | 340° |
| 2026-04-21 11:33 | 55.02143 | -3.00111 | 23262 ft | 382 kts | 340° |
| 2026-04-21 11:34 | 55.04590 | -3.01892 | 22746 ft | 379 kts | 340° |
| 2026-04-21 11:34 | 55.07017 | -3.03654 | 22205 ft | 377 kts | 340° |
| 2026-04-21 11:34 | 55.09434 | -3.05411 | 21690 ft | 375 kts | 341° |
| 2026-04-21 11:34 | 55.11842 | -3.07160 | 21158 ft | 374 kts | 341° |
| 2026-04-21 11:35 | 55.14205 | -3.08880 | 20660 ft | 372 kts | 341° |
| 2026-04-21 11:35 | 55.16594 | -3.10627 | 20072 ft | 373 kts | 340° |
| 2026-04-21 11:35 | 55.18988 | -3.12388 | 19427 ft | 375 kts | 340° |
| 2026-04-21 11:35 | 55.21399 | -3.14161 | 18873 ft | 374 kts | 340° |
| 2026-04-21 11:36 | 55.23784 | -3.15919 | 18242 ft | 373 kts | 340° |
| 2026-04-21 11:36 | 55.26142 | -3.17659 | 18021 ft | 360 kts | 340° |
| 2026-04-21 11:36 | 55.28425 | -3.19258 | 17857 ft | 346 kts | 346° |
| 2026-04-21 11:36 | 55.30762 | -3.20066 | 17402 ft | 332 kts | 360° |
| 2026-04-21 11:37 | 55.33064 | -3.19982 | 16366 ft | 332 kts | 10° |
| 2026-04-21 11:37 | 55.35355 | -3.19589 | 15360 ft | 338 kts | 10° |
| 2026-04-21 11:37 | 55.37709 | -3.19197 | 14479 ft | 339 kts | 9° |
| 2026-04-21 11:37 | 55.39986 | -3.18843 | 14251 ft | 319 kts | 9° |
| 2026-04-21 11:38 | 55.42167 | -3.18512 | 13674 ft | 311 kts | 9° |
| 2026-04-21 11:38 | 55.44311 | -3.18180 | 13031 ft | 308 kts | 9° |
| 2026-04-21 11:38 | 55.46440 | -3.17849 | 12344 ft | 305 kts | 9° |
| 2026-04-21 11:38 | 55.48536 | -3.17522 | 11743 ft | 301 kts | 9° |
| 2026-04-21 11:39 | 55.50612 | -3.17198 | 11209 ft | 301 kts | 9° |
| 2026-04-21 11:39 | 55.52700 | -3.16886 | 10886 ft | 299 kts | 7° |
| 2026-04-21 11:39 | 55.54759 | -3.17361 | 10618 ft | 302 kts | 345° |
| 2026-04-21 11:39 | 55.56582 | -3.19203 | 10417 ft | 306 kts | 320° |
| 2026-04-21 11:40 | 55.57880 | -3.22176 | 10271 ft | 308 kts | 297° |
| 2026-04-21 11:40 | 55.58820 | -3.25591 | 10139 ft | 309 kts | 295° |
| 2026-04-21 11:40 | 55.59443 | -3.27904 | 10046 ft | 308 kts | 295° |
| 2026-04-21 11:40 | 55.60360 | -3.31322 | 9907 ft | 308 kts | 295° |
| 2026-04-21 11:41 | 55.61274 | -3.34739 | 9777 ft | 307 kts | 295° |
| 2026-04-21 11:41 | 55.62188 | -3.38153 | 9618 ft | 305 kts | 295° |
| 2026-04-21 11:41 | 55.63090 | -3.41516 | 9290 ft | 301 kts | 295° |
| 2026-04-21 11:41 | 55.63986 | -3.44852 | 8921 ft | 299 kts | 295° |
| 2026-04-21 11:42 | 55.64871 | -3.48168 | 8574 ft | 297 kts | 295° |
| 2026-04-21 11:42 | 55.65749 | -3.51470 | 8214 ft | 296 kts | 295° |
| 2026-04-21 11:42 | 55.66614 | -3.54717 | 7852 ft | 295 kts | 295° |
| 2026-04-21 11:42 | 55.67488 | -3.57998 | 7496 ft | 294 kts | 295° |
| 2026-04-21 11:43 | 55.68370 | -3.61267 | 7132 ft | 293 kts | 298° |
| 2026-04-21 11:43 | 55.69526 | -3.64216 | 6783 ft | 290 kts | 314° |
| 2026-04-21 11:43 | 55.71009 | -3.66595 | 6338 ft | 289 kts | 324° |
| 2026-04-21 11:43 | 55.72601 | -3.68884 | 5752 ft | 296 kts | 324° |
| 2026-04-21 11:44 | 55.74191 | -3.71189 | 5440 ft | 291 kts | 324° |
| 2026-04-21 11:44 | 55.75876 | -3.73036 | 5214 ft | 278 kts | 341° |
| 2026-04-21 11:44 | 55.77671 | -3.73915 | 5140 ft | 259 kts | 357° |
| 2026-04-21 11:44 | 55.79411 | -3.73945 | 5013 ft | 244 kts | 12° |
| 2026-04-21 11:45 | 55.81012 | -3.73258 | 4823 ft | 231 kts | 26° |
| 2026-04-21 11:45 | 55.82411 | -3.71982 | 4591 ft | 223 kts | 38° |
| 2026-04-21 11:45 | 55.83587 | -3.70199 | 4324 ft | 217 kts | 51° |
| 2026-04-21 11:45 | 55.84474 | -3.68070 | 4049 ft | 212 kts | 62° |
| 2026-04-21 11:46 | 55.85240 | -3.65833 | 3757 ft | 211 kts | 61° |
| 2026-04-21 11:46 | 55.86004 | -3.63611 | 3465 ft | 210 kts | 60° |
| 2026-04-21 11:46 | 55.86743 | -3.61460 | 3178 ft | 193 kts | 61° |
| 2026-04-21 11:46 | 55.87408 | -3.59522 | 2923 ft | 174 kts | 60° |
| 2026-04-21 11:47 | 55.88025 | -3.57720 | 2681 ft | 168 kts | 61° |
| 2026-04-21 11:47 | 55.88620 | -3.55979 | 2493 ft | 158 kts | 61° |
| 2026-04-21 11:47 | 55.89166 | -3.54383 | 2252 ft | 144 kts | 61° |
| 2026-04-21 11:47 | 55.89660 | -3.52939 | 2050 ft | 129 kts | 60° |
| 2026-04-21 11:48 | 55.90119 | -3.51591 | 1879 ft | 125 kts | 61° |
| 2026-04-21 11:48 | 55.90564 | -3.50289 | 1716 ft | 118 kts | 62° |
| 2026-04-21 11:48 | 55.90978 | -3.49074 | 1555 ft | 112 kts | 63° |
| 2026-04-21 11:48 | 55.91382 | -3.47887 | 1399 ft | 112 kts | 62° |
| 2026-04-21 11:49 | 55.91780 | -3.46720 | 1229 ft | 110 kts | 61° |
| 2026-04-21 11:49 | 55.92182 | -3.45537 | 1071 ft | 110 kts | 62° |
| 2026-04-21 11:49 | 55.92586 | -3.44353 | 906 ft | 112 kts | 62° |
| 2026-04-21 11:49 | 55.92984 | -3.43180 | 762 ft | 111 kts | 61° |
| 2026-04-21 11:50 | 55.93393 | -3.41993 | 594 ft | 114 kts | 61° |
| 2026-04-21 11:50 | 55.93795 | -3.40803 | 434 ft | 112 kts | 60° |
| 2026-04-21 11:50 | 55.94200 | -3.39611 | 277 ft | 112 kts | 59° |
| 2026-04-21 11:50 | 55.94592 | -3.38454 | 134 ft | 105 kts | 59° |
| 2026-04-21 11:51 | 55.94909 | -3.37514 | 113 ft | 72 kts | 59° |
| 2026-04-21 11:51 | 55.95109 | -3.36921 | 114 ft | 43 kts | 59° |
| 2026-04-21 11:51 | 55.95238 | -3.36541 | 112 ft | 8 kts | 58° |
| 2026-04-21 11:51 | 55.95255 | -3.36479 | 112 ft | 8 kts | 71° |
| 2026-04-21 11:52 | 55.95210 | -3.36370 | 113 ft | 13 kts | 148° |
| 2026-04-21 11:52 | 55.95120 | -3.36336 | 115 ft | 16 kts | 220° |
| 2026-04-21 11:52 | 55.95036 | -3.36386 | 116 ft | 9 kts | 181° |
| 2026-04-21 11:52 | 55.94986 | -3.36480 | 114 ft | 13 kts | 239° |
| 2026-04-21 11:53 | 55.94931 | -3.36642 | 116 ft | 17 kts | 239° |
| 2026-04-21 11:53 | 55.94865 | -3.36777 | 115 ft | 9 kts | 200° |
| 2026-04-21 11:53 | 55.94790 | -3.36774 | 116 ft | 12 kts | 170° |
| 2026-04-21 11:53 | 55.94707 | -3.36727 | 114 ft | 8 kts | 147° |
| 2026-04-21 11:54 | 55.94702 | -3.36626 | 116 ft | 6 kts | 88° |
| 2026-04-21 11:54 | 55.94702 | -3.36601 | 116 ft | 0 kts | 89° |